Time,TemperatureF,DewpointF,PressureIn,WindDirection,WindDirectionDegrees,WindSpeedMPH,WindSpeedGustMPH,Humidity,HourlyPrecipIn,Conditions,Clouds,dailyrainin,SoftwareType,DateUTC
2013-01-03 00:00:00,31.0,17.0,-100.00,NNE,17,12.0,16.0,54,-99.99,,,-99.99,,2013-01-03 05:00:00,
2013-01-03 00:23:00,31.0,17.0,-100.00,NNE,17,12.0,16.0,54,-99.99,,,-99.99,,2013-01-03 05:23:00,
2013-01-03 00:33:00,31.0,17.0,-100.00,NNE,17,12.0,16.0,54,-99.99,,,-99.99,,2013-01-03 05:33:00,
2013-01-03 00:42:00,31.0,17.0,-100.00,NNE,17,12.0,16.0,54,-99.99,,,-99.99,,2013-01-03 05:42:00,
2013-01-03 00:53:00,31.0,17.0,-100.00,NNE,17,12.0,16.0,54,-99.99,,,-99.99,,2013-01-03 05:53:00,
2013-01-03 01:00:00,31.0,16.0,-100.00,North,4,9.0,16.0,55,-99.99,,,-99.99,,2013-01-03 06:00:00,
2013-01-03 01:22:00,31.0,16.0,-100.00,North,4,9.0,16.0,55,-99.99,,,-99.99,,2013-01-03 06:22:00,
2013-01-03 01:33:00,31.0,16.0,-100.00,North,4,9.0,16.0,55,-99.99,,,-99.99,,2013-01-03 06:33:00,
2013-01-03 01:42:00,31.0,16.0,-100.00,North,4,9.0,16.0,55,-99.99,,,-99.99,,2013-01-03 06:42:00,
2013-01-03 01:53:00,31.0,16.0,-100.00,North,4,9.0,16.0,55,-99.99,,,-99.99,,2013-01-03 06:53:00,
2013-01-03 02:00:00,30.0,18.0,-100.00,North,8,5.0,16.0,59,-99.99,,,-99.99,,2013-01-03 07:00:00,
2013-01-03 02:22:00,30.0,18.0,-100.00,North,8,5.0,16.0,59,-99.99,,,-99.99,,2013-01-03 07:22:00,
2013-01-03 02:33:00,30.0,18.0,-100.00,North,8,5.0,16.0,59,-99.99,,,-99.99,,2013-01-03 07:33:00,
2013-01-03 02:43:00,30.0,18.0,-100.00,North,8,5.0,16.0,59,-99.99,,,-99.99,,2013-01-03 07:43:00,
2013-01-03 02:53:00,30.0,18.0,-100.00,North,8,5.0,16.0,59,-99.99,,,-99.99,,2013-01-03 07:53:00,
2013-01-03 03:00:00,30.0,18.0,-100.00,North,0,6.0,12.0,61,-99.99,,,-99.99,,2013-01-03 08:00:00,
2013-01-03 03:33:00,30.0,18.0,-100.00,North,0,6.0,12.0,61,-99.99,,,-99.99,,2013-01-03 08:33:00,
2013-01-03 03:43:00,30.0,18.0,-100.00,North,0,6.0,12.0,61,-99.99,,,-99.99,,2013-01-03 08:43:00,
2013-01-03 03:53:00,30.0,18.0,-100.00,North,0,6.0,12.0,61,-99.99,,,-99.99,,2013-01-03 08:53:00,
2013-01-03 04:00:00,30.0,18.0,-100.00,NNW,330,4.0,10.0,63,-99.99,,,-99.99,,2013-01-03 09:00:00,
2013-01-03 04:34:00,30.0,18.0,-100.00,NNW,330,4.0,10.0,63,-99.99,,,-99.99,,2013-01-03 09:34:00,
2013-01-03 04:43:00,30.0,18.0,-100.00,NNW,330,4.0,10.0,63,-99.99,,,-99.99,,2013-01-03 09:43:00,
2013-01-03 04:53:00,30.0,18.0,-100.00,NNW,330,4.0,10.0,63,-99.99,,,-99.99,,2013-01-03 09:53:00,
2013-01-03 05:00:00,29.0,18.0,-100.00,North,351,3.0,9.0,64,-99.99,,,-99.99,,2013-01-03 10:00:00,
2013-01-03 05:23:00,29.0,18.0,-100.00,North,351,3.0,9.0,64,-99.99,,,-99.99,,2013-01-03 10:23:00,
2013-01-03 05:33:00,29.0,18.0,-100.00,North,351,3.0,9.0,64,-99.99,,,-99.99,,2013-01-03 10:33:00,
2013-01-03 05:43:00,29.0,18.0,-100.00,North,351,3.0,9.0,64,-99.99,,,-99.99,,2013-01-03 10:43:00,
2013-01-03 05:53:00,29.0,18.0,-100.00,North,351,3.0,9.0,64,-99.99,,,-99.99,,2013-01-03 10:53:00,
2013-01-03 06:00:00,29.0,18.0,-100.00,North,351,3.0,6.0,65,-99.99,,,-99.99,,2013-01-03 11:00:00,
2013-01-03 06:23:00,29.0,18.0,-100.00,North,351,3.0,6.0,65,-99.99,,,-99.99,,2013-01-03 11:23:00,
2013-01-03 06:33:00,29.0,18.0,-100.00,North,351,3.0,6.0,65,-99.99,,,-99.99,,2013-01-03 11:33:00,
2013-01-03 06:43:00,29.0,18.0,-100.00,North,351,3.0,6.0,65,-99.99,,,-99.99,,2013-01-03 11:43:00,
2013-01-03 06:53:00,29.0,18.0,-100.00,North,351,3.0,6.0,65,-99.99,,,-99.99,,2013-01-03 11:53:00,
2013-01-03 07:00:00,28.0,18.0,-100.00,North,9,0.0,6.0,67,-99.99,,,-99.99,,2013-01-03 12:00:00,
2013-01-03 07:22:00,28.0,18.0,-100.00,North,9,0.0,6.0,67,-99.99,,,-99.99,,2013-01-03 12:22:00,
2013-01-03 07:33:00,28.0,18.0,-100.00,North,9,0.0,6.0,67,-99.99,,,-99.99,,2013-01-03 12:33:00,
2013-01-03 07:43:00,28.0,18.0,-100.00,North,9,0.0,6.0,67,-99.99,,,-99.99,,2013-01-03 12:43:00,
2013-01-03 07:53:00,28.0,18.0,-100.00,North,9,0.0,6.0,67,-99.99,,,-99.99,,2013-01-03 12:53:00,
2013-01-03 08:00:00,28.0,18.0,-100.00,NNW,329,2.0,5.0,66,-99.99,,,-99.99,,2013-01-03 13:00:00,
2013-01-03 08:22:00,28.0,18.0,-100.00,NNW,329,2.0,5.0,66,-99.99,,,-99.99,,2013-01-03 13:22:00,
2013-01-03 08:33:00,28.0,18.0,-100.00,NNW,329,2.0,5.0,66,-99.99,,,-99.99,,2013-01-03 13:33:00,
2013-01-03 08:43:00,28.0,18.0,-100.00,NNW,329,2.0,5.0,66,-99.99,,,-99.99,,2013-01-03 13:43:00,
2013-01-03 08:53:00,28.0,18.0,-100.00,NNW,329,2.0,5.0,66,-99.99,,,-99.99,,2013-01-03 13:53:00,
2013-01-03 10:00:00,31.0,19.0,-100.00,NW,325,4.0,10.0,60,-99.99,,,-99.99,,2013-01-03 15:00:00,
2013-01-03 10:23:00,31.0,19.0,-100.00,NW,325,4.0,10.0,60,-99.99,,,-99.99,,2013-01-03 15:23:00,
2013-01-03 10:34:00,31.0,19.0,-100.00,NW,325,4.0,10.0,60,-99.99,,,-99.99,,2013-01-03 15:34:00,
2013-01-03 10:43:00,31.0,19.0,-100.00,NW,325,4.0,10.0,60,-99.99,,,-99.99,,2013-01-03 15:43:00,
2013-01-03 10:53:00,31.0,19.0,-100.00,NW,325,4.0,10.0,60,-99.99,,,-99.99,,2013-01-03 15:53:00,
2013-01-03 11:00:00,32.0,19.0,-100.00,WNW,288,5.0,13.0,58,-99.99,,,-99.99,,2013-01-03 16:00:00,
2013-01-03 11:23:00,32.0,19.0,-100.00,WNW,288,5.0,13.0,58,-99.99,,,-99.99,,2013-01-03 16:23:00,
2013-01-03 11:34:00,32.0,19.0,-100.00,WNW,288,5.0,13.0,58,-99.99,,,-99.99,,2013-01-03 16:34:00,
2013-01-03 11:43:00,32.0,19.0,-100.00,WNW,288,5.0,13.0,58,-99.99,,,-99.99,,2013-01-03 16:43:00,
2013-01-03 11:53:00,32.0,19.0,-100.00,WNW,288,5.0,13.0,58,-99.99,,,-99.99,,2013-01-03 16:53:00,
2013-01-03 12:00:00,32.0,15.0,-100.00,WNW,296,14.0,16.0,49,-99.99,,,-99.99,,2013-01-03 17:00:00,
2013-01-03 12:23:00,32.0,15.0,-100.00,WNW,296,14.0,16.0,49,-99.99,,,-99.99,,2013-01-03 17:23:00,
2013-01-03 12:33:00,32.0,15.0,-100.00,WNW,296,14.0,16.0,49,-99.99,,,-99.99,,2013-01-03 17:33:00,
2013-01-03 12:43:00,32.0,15.0,-100.00,WNW,296,14.0,16.0,49,-99.99,,,-99.99,,2013-01-03 17:43:00,
2013-01-03 12:53:00,32.0,15.0,-100.00,WNW,296,14.0,16.0,49,-99.99,,,-99.99,,2013-01-03 17:53:00,
2013-01-03 13:00:00,32.0,18.0,-100.00,NW,318,8.0,17.0,54,-99.99,,,-99.99,,2013-01-03 18:00:00,
2013-01-03 13:23:00,32.0,18.0,-100.00,NW,318,8.0,17.0,54,-99.99,,,-99.99,,2013-01-03 18:23:00,
2013-01-03 13:33:00,32.0,18.0,-100.00,NW,318,8.0,17.0,54,-99.99,,,-99.99,,2013-01-03 18:33:00,
2013-01-03 13:43:00,32.0,18.0,-100.00,NW,318,8.0,17.0,54,-99.99,,,-99.99,,2013-01-03 18:43:00,
2013-01-03 13:53:00,32.0,18.0,-100.00,NW,318,8.0,17.0,54,-99.99,,,-99.99,,2013-01-03 18:53:00,
2013-01-03 14:00:00,33.0,18.0,-100.00,WNW,297,11.0,17.0,54,-99.99,,,-99.99,,2013-01-03 19:00:00,
2013-01-03 14:56:00,33.0,18.0,-100.00,WNW,297,11.0,17.0,54,-99.99,,,-99.99,,2013-01-03 19:56:00,
2013-01-03 15:00:00,34.0,18.0,-100.00,NW,314,9.0,18.0,52,-99.99,,,-99.99,,2013-01-03 20:00:00,
2013-01-03 15:33:00,34.0,18.0,-100.00,NW,314,9.0,18.0,52,-99.99,,,-99.99,,2013-01-03 20:33:00,
2013-01-03 15:43:00,34.0,18.0,-100.00,NW,314,9.0,18.0,52,-99.99,,,-99.99,,2013-01-03 20:43:00,
2013-01-03 15:53:00,34.0,18.0,-100.00,NW,314,9.0,18.0,52,-99.99,,,-99.99,,2013-01-03 20:53:00,
2013-01-03 16:00:00,33.0,19.0,-100.00,WNW,297,8.0,16.0,55,-99.99,,,-99.99,,2013-01-03 21:00:00,
2013-01-03 16:23:00,33.0,19.0,-100.00,WNW,297,8.0,16.0,55,-99.99,,,-99.99,,2013-01-03 21:23:00,
2013-01-03 16:38:00,33.0,19.0,-100.00,WNW,297,8.0,16.0,55,-99.99,,,-99.99,,2013-01-03 21:38:00,
2013-01-03 16:50:00,33.0,19.0,-100.00,WNW,297,8.0,16.0,55,-99.99,,,-99.99,,2013-01-03 21:50:00,
2013-01-03 17:00:00,33.0,19.0,-100.00,NW,305,7.0,16.0,56,-99.99,,,-99.99,,2013-01-03 22:00:00,
2013-01-03 17:22:00,33.0,19.0,-100.00,NW,305,7.0,16.0,56,-99.99,,,-99.99,,2013-01-03 22:22:00,
2013-01-03 17:33:00,33.0,19.0,-100.00,NW,305,7.0,16.0,56,-99.99,,,-99.99,,2013-01-03 22:33:00,
2013-01-03 17:43:00,33.0,19.0,-100.00,NW,305,7.0,16.0,56,-99.99,,,-99.99,,2013-01-03 22:43:00,
2013-01-03 17:53:00,33.0,19.0,-100.00,NW,305,7.0,16.0,56,-99.99,,,-99.99,,2013-01-03 22:53:00,
2013-01-03 18:00:00,33.0,20.0,-100.00,West,268,9.0,15.0,57,-99.99,,,-99.99,,2013-01-03 23:00:00,
2013-01-03 18:23:00,33.0,20.0,-100.00,West,268,9.0,15.0,57,-99.99,,,-99.99,,2013-01-03 23:23:00,
2013-01-03 18:33:00,33.0,20.0,-100.00,West,268,9.0,15.0,57,-99.99,,,-99.99,,2013-01-03 23:33:00,
2013-01-03 18:43:00,33.0,20.0,-100.00,West,268,9.0,15.0,57,-99.99,,,-99.99,,2013-01-03 23:43:00,
2013-01-03 18:53:00,33.0,20.0,-100.00,West,268,9.0,15.0,57,-99.99,,,-99.99,,2013-01-03 23:53:00,
2013-01-03 19:00:00,33.0,20.0,-100.00,West,281,5.0,16.0,59,-99.99,,,-99.99,,2013-01-04 00:00:00,
2013-01-03 19:23:00,33.0,20.0,-100.00,West,281,5.0,16.0,59,-99.99,,,-99.99,,2013-01-04 00:23:00,
2013-01-03 19:33:00,33.0,20.0,-100.00,West,281,5.0,16.0,59,-99.99,,,-99.99,,2013-01-04 00:33:00,
2013-01-03 19:42:00,33.0,20.0,-100.00,West,281,5.0,16.0,59,-99.99,,,-99.99,,2013-01-04 00:42:00,
2013-01-03 19:53:00,33.0,20.0,-100.00,West,281,5.0,16.0,59,-99.99,,,-99.99,,2013-01-04 00:53:00,
2013-01-03 20:00:00,34.0,22.0,-100.00,WSW,255,6.0,15.0,62,-99.99,,,-99.99,,2013-01-04 01:00:00,
2013-01-03 20:22:00,34.0,22.0,-100.00,WSW,255,6.0,15.0,62,-99.99,,,-99.99,,2013-01-04 01:22:00,
2013-01-03 20:33:00,34.0,22.0,-100.00,WSW,255,6.0,15.0,62,-99.99,,,-99.99,,2013-01-04 01:33:00,
2013-01-03 20:42:00,34.0,22.0,-100.00,WSW,255,6.0,15.0,62,-99.99,,,-99.99,,2013-01-04 01:42:00,
2013-01-03 20:53:00,34.0,22.0,-100.00,WSW,255,6.0,15.0,62,-99.99,,,-99.99,,2013-01-04 01:53:00,
2013-01-03 21:00:00,34.0,24.0,-100.00,WSW,256,6.0,16.0,65,-99.99,,,-99.99,,2013-01-04 02:00:00,
2013-01-03 21:23:00,34.0,24.0,-100.00,WSW,256,6.0,16.0,65,-99.99,,,-99.99,,2013-01-04 02:23:00,
2013-01-03 21:33:00,34.0,24.0,-100.00,WSW,256,6.0,16.0,65,-99.99,,,-99.99,,2013-01-04 02:33:00,
2013-01-03 21:42:00,34.0,24.0,-100.00,WSW,256,6.0,16.0,65,-99.99,,,-99.99,,2013-01-04 02:42:00,
2013-01-03 21:53:00,34.0,24.0,-100.00,WSW,256,6.0,16.0,65,-99.99,,,-99.99,,2013-01-04 02:53:00,
2013-01-03 22:00:00,34.0,23.0,-100.00,West,259,6.0,15.0,64,-99.99,,,-99.99,,2013-01-04 03:00:00,
2013-01-03 22:22:00,34.0,23.0,-100.00,West,259,6.0,15.0,64,-99.99,,,-99.99,,2013-01-04 03:22:00,
2013-01-03 22:33:00,34.0,23.0,-100.00,West,259,6.0,15.0,64,-99.99,,,-99.99,,2013-01-04 03:33:00,
2013-01-03 22:43:00,34.0,23.0,-100.00,West,259,6.0,15.0,64,-99.99,,,-99.99,,2013-01-04 03:43:00,
2013-01-03 22:53:00,34.0,23.0,-100.00,West,259,6.0,15.0,64,-99.99,,,-99.99,,2013-01-04 03:53:00,
2013-01-03 23:00:00,35.0,24.0,-100.00,WNW,283,7.0,14.0,65,-99.99,,,-99.99,,2013-01-04 04:00:00,
2013-01-03 23:22:00,35.0,24.0,-100.00,WNW,283,7.0,14.0,65,-99.99,,,-99.99,,2013-01-04 04:22:00,
2013-01-03 23:32:00,35.0,24.0,-100.00,WNW,283,7.0,14.0,65,-99.99,,,-99.99,,2013-01-04 04:32:00,
2013-01-03 23:42:00,35.0,24.0,-100.00,WNW,283,7.0,14.0,65,-99.99,,,-99.99,,2013-01-04 04:42:00,
2013-01-03 23:53:00,35.0,24.0,-100.00,WNW,283,7.0,14.0,65,-99.99,,,-99.99,,2013-01-04 04:53:00,